sensor_id;sensor_type;location;lat;lon;timestamp;pressure;altitude;pressure_sealevel;temperature;humidity
72294;BME280;60632;49.236;8.398;2023-04-20T00:01:59;100630.94;;;24.26;37.94
72294;BME280;60632;49.236;8.398;2023-04-20T00:05:01;100631.75;;;24.27;37.88
72294;BME280;60632;49.236;8.398;2023-04-20T00:08:02;100633.72;;;24.26;37.94
72294;BME280;60632;49.236;8.398;2023-04-20T00:11:02;100622.66;;;24.26;38.00
72294;BME280;60632;49.236;8.398;2023-04-20T00:14:03;100619.88;;;24.26;37.98
72294;BME280;60632;49.236;8.398;2023-04-20T00:17:04;100619.88;;;24.26;37.95
72294;BME280;60632;49.236;8.398;2023-04-20T00:20:04;100612.69;;;24.25;37.95
72294;BME280;60632;49.236;8.398;2023-04-20T00:23:05;100614.34;;;24.26;38.02
72294;BME280;60632;49.236;8.398;2023-04-20T00:26:06;100598.03;;;24.25;38.02
72294;BME280;60632;49.236;8.398;2023-04-20T00:29:06;100596.06;;;24.25;37.95
72294;BME280;60632;49.236;8.398;2023-04-20T00:32:06;100593.28;;;24.25;37.95
72294;BME280;60632;49.236;8.398;2023-04-20T00:35:07;100586.13;;;24.24;38.01
72294;BME280;60632;49.236;8.398;2023-04-20T00:38:07;100584.97;;;24.25;38.00
72294;BME280;60632;49.236;8.398;2023-04-20T00:41:08;100572.28;;;24.24;37.98
72294;BME280;60632;49.236;8.398;2023-04-20T00:44:08;100572.28;;;24.24;38.13
72294;BME280;60632;49.236;8.398;2023-04-20T00:47:10;100571.47;;;24.24;38.02
72294;BME280;60632;49.236;8.398;2023-04-20T00:50:11;100573.44;;;24.23;38.01
72294;BME280;60632;49.236;8.398;2023-04-20T00:53:11;100566.75;;;24.24;37.99
72294;BME280;60632;49.236;8.398;2023-04-20T00:56:12;100570.66;;;24.23;38.02
72294;BME280;60632;49.236;8.398;2023-04-20T00:59:13;100565.94;;;24.24;37.85
72294;BME280;60632;49.236;8.398;2023-04-20T01:02:14;100565.94;;;24.24;37.99
72294;BME280;60632;49.236;8.398;2023-04-20T01:05:14;100553.22;;;24.23;37.96
72294;BME280;60632;49.236;8.398;2023-04-20T01:08:15;100551.28;;;24.23;37.81
72294;BME280;60632;49.236;8.398;2023-04-20T01:11:15;100552.38;;;24.22;37.80
72294;BME280;60632;49.236;8.398;2023-04-20T01:14:15;100545.75;;;24.23;37.78
72294;BME280;60632;49.236;8.398;2023-04-20T01:17:16;100541.31;;;24.22;37.78
72294;BME280;60632;49.236;8.398;2023-04-20T01:20:16;100536.63;;;24.23;37.78
72294;BME280;60632;49.236;8.398;2023-04-20T01:23:17;100533.00;;;24.22;37.74
72294;BME280;60632;49.236;8.398;2023-04-20T01:26:18;100541.31;;;24.22;37.81
72294;BME280;60632;49.236;8.398;2023-04-20T01:29:18;100523.88;;;24.21;37.78
72294;BME280;60632;49.236;8.398;2023-04-20T01:32:18;100525.53;;;24.23;37.78
72294;BME280;60632;49.236;8.398;2023-04-20T01:35:19;100519.16;;;24.22;37.83
72294;BME280;60632;49.236;8.398;2023-04-20T01:38:20;100519.16;;;24.22;37.77
72294;BME280;60632;49.236;8.398;2023-04-20T01:41:20;100516.38;;;24.22;37.74
72294;BME280;60632;49.236;8.398;2023-04-20T01:44:21;100500.91;;;24.21;37.74
72294;BME280;60632;49.236;8.398;2023-04-20T01:47:21;100500.91;;;24.21;37.87
72294;BME280;60632;49.236;8.398;2023-04-20T01:50:21;100506.47;;;24.21;37.72
72294;BME280;60632;49.236;8.398;2023-04-20T01:53:22;100496.53;;;24.20;37.68
72294;BME280;60632;49.236;8.398;2023-04-20T01:56:22;100501.72;;;24.21;37.79
72294;BME280;60632;49.236;8.398;2023-04-20T01:59:22;100494.56;;;24.20;37.70
72294;BME280;60632;49.236;8.398;2023-04-20T02:02:23;100486.56;;;24.19;37.65
72294;BME280;60632;49.236;8.398;2023-04-20T02:05:23;100486.56;;;24.19;37.63
72294;BME280;60632;49.236;8.398;2023-04-20T02:08:24;100486.56;;;24.19;37.71
72294;BME280;60632;49.236;8.398;2023-04-20T02:11:24;100481.88;;;24.19;37.67
72294;BME280;60632;49.236;8.398;2023-04-20T02:14:25;100481.03;;;24.19;37.63
72294;BME280;60632;49.236;8.398;2023-04-20T02:17:25;100485.75;;;24.18;37.63
72294;BME280;60632;49.236;8.398;2023-04-20T02:20:26;100481.03;;;24.19;37.83
72294;BME280;60632;49.236;8.398;2023-04-20T02:23:27;100475.50;;;24.19;37.76
72294;BME280;60632;49.236;8.398;2023-04-20T02:26:27;100478.25;;;24.19;37.63
72294;BME280;60632;49.236;8.398;2023-04-20T02:29:28;100474.69;;;24.18;37.72
72294;BME280;60632;49.236;8.398;2023-04-20T02:32:28;100477.44;;;24.18;37.77
72294;BME280;60632;49.236;8.398;2023-04-20T02:35:28;100471.09;;;24.18;37.50
72294;BME280;60632;49.236;8.398;2023-04-20T02:38:29;100461.66;;;24.19;37.65
72294;BME280;60632;49.236;8.398;2023-04-20T02:41:29;100462.78;;;24.18;37.58
72294;BME280;60632;49.236;8.398;2023-04-20T02:44:29;100466.06;;;24.20;37.64
72294;BME280;60632;49.236;8.398;2023-04-20T02:47:30;100460.03;;;24.18;37.53
72294;BME280;60632;49.236;8.398;2023-04-20T02:50:30;100451.72;;;24.18;37.50
72294;BME280;60632;49.236;8.398;2023-04-20T02:53:30;100457.25;;;24.18;37.59
72294;BME280;60632;49.236;8.398;2023-04-20T02:56:31;100450.09;;;24.17;37.54
72294;BME280;60632;49.236;8.398;2023-04-20T02:59:31;100444.56;;;24.17;37.62
72294;BME280;60632;49.236;8.398;2023-04-20T03:02:32;100444.56;;;24.17;37.54
72294;BME280;60632;49.236;8.398;2023-04-20T03:05:32;100451.72;;;24.18;37.39
72294;BME280;60632;49.236;8.398;2023-04-20T03:08:32;100446.19;;;24.18;37.50
72294;BME280;60632;49.236;8.398;2023-04-20T03:11:33;100444.56;;;24.17;37.46
72294;BME280;60632;49.236;8.398;2023-04-20T03:14:33;100439.03;;;24.17;37.61
72294;BME280;60632;49.236;8.398;2023-04-20T03:17:33;100431.84;;;24.16;37.39
72294;BME280;60632;49.236;8.398;2023-04-20T03:20:34;100427.94;;;24.17;37.51
72294;BME280;60632;49.236;8.398;2023-04-20T03:23:34;100432.69;;;24.16;37.67
72294;BME280;60632;49.236;8.398;2023-04-20T03:26:35;100434.59;;;24.16;37.51
72294;BME280;60632;49.236;8.398;2023-04-20T03:29:35;100437.06;;;24.17;37.53
72294;BME280;60632;49.236;8.398;2023-04-20T03:32:35;100431.53;;;24.17;37.47
72294;BME280;60632;49.236;8.398;2023-04-20T03:35:37;100425.47;;;24.15;37.43
72294;BME280;60632;49.236;8.398;2023-04-20T03:38:38;100437.38;;;24.16;37.39
72294;BME280;60632;49.236;8.398;2023-04-20T03:41:38;100437.38;;;24.16;37.32
72294;BME280;60632;49.236;8.398;2023-04-20T03:44:39;100430.22;;;24.15;37.31
72294;BME280;60632;49.236;8.398;2023-04-20T03:47:39;100424.69;;;24.15;37.47
72294;BME280;60632;49.236;8.398;2023-04-20T03:50:40;100426.63;;;24.14;37.45
72294;BME280;60632;49.236;8.398;2023-04-20T03:53:40;100423.06;;;24.14;37.44
72294;BME280;60632;49.236;8.398;2023-04-20T03:56:41;100423.06;;;24.14;37.40
72294;BME280;60632;49.236;8.398;2023-04-20T03:59:43;100423.88;;;24.14;37.43
72294;BME280;60632;49.236;8.398;2023-04-20T04:02:44;100423.06;;;24.14;37.48
72294;BME280;60632;49.236;8.398;2023-04-20T04:05:44;100417.53;;;24.14;37.21
72294;BME280;60632;49.236;8.398;2023-04-20T04:08:44;100413.94;;;24.13;37.37
72294;BME280;60632;49.236;8.398;2023-04-20T04:11:45;100411.97;;;24.14;37.48
72294;BME280;60632;49.236;8.398;2023-04-20T04:14:45;100415.91;;;24.13;37.34
72294;BME280;60632;49.236;8.398;2023-04-20T04:17:46;100413.94;;;24.13;37.39
72294;BME280;60632;49.236;8.398;2023-04-20T04:20:47;100409.50;;;24.12;37.34
72294;BME280;60632;49.236;8.398;2023-04-20T04:23:47;100411.97;;;24.14;37.38
72294;BME280;60632;49.236;8.398;2023-04-20T04:26:48;100398.44;;;24.12;37.31
72294;BME280;60632;49.236;8.398;2023-04-20T04:29:48;100400.41;;;24.12;37.48
72294;BME280;60632;49.236;8.398;2023-04-20T04:32:49;100397.63;;;24.12;37.38
72294;BME280;60632;49.236;8.398;2023-04-20T04:35:50;100394.88;;;24.12;37.32
72294;BME280;60632;49.236;8.398;2023-04-20T04:38:52;100397.63;;;24.12;37.38
72294;BME280;60632;49.236;8.398;2023-04-20T04:41:53;100398.44;;;24.12;37.13
72294;BME280;60632;49.236;8.398;2023-04-20T04:44:53;100396.00;;;24.11;37.35
72294;BME280;60632;49.236;8.398;2023-04-20T04:47:55;100401.56;;;24.11;37.33
72294;BME280;60632;49.236;8.398;2023-04-20T04:50:56;100397.63;;;24.12;37.19
72294;BME280;60632;49.236;8.398;2023-04-20T04:53:56;100404.81;;;24.13;37.23
72294;BME280;60632;49.236;8.398;2023-04-20T04:56:56;100386.56;;;24.12;37.19
72294;BME280;60632;49.236;8.398;2023-04-20T04:59:57;100390.47;;;24.11;37.19
72294;BME280;60632;49.236;8.398;2023-04-20T05:02:57;100393.25;;;24.11;37.18
72294;BME280;60632;49.236;8.398;2023-04-20T05:05:57;100403.50;;;24.10;37.25
72294;BME280;60632;49.236;8.398;2023-04-20T05:08:58;100399.94;;;24.10;37.19
72294;BME280;60632;49.236;8.398;2023-04-20T05:11:58;100408.22;;;24.10;37.24
72294;BME280;60632;49.236;8.398;2023-04-20T05:14:59;100405.47;;;24.10;37.19
72294;BME280;60632;49.236;8.398;2023-04-20T05:18:00;100410.16;;;24.09;37.30
72294;BME280;60632;49.236;8.398;2023-04-20T05:21:01;100409.34;;;24.09;37.00
72294;BME280;60632;49.236;8.398;2023-04-20T05:24:01;100406.59;;;24.09;37.16
72294;BME280;60632;49.236;8.398;2023-04-20T05:27:01;100409.34;;;24.09;37.38
72294;BME280;60632;49.236;8.398;2023-04-20T05:30:03;100419.63;;;24.08;37.20
72294;BME280;60632;49.236;8.398;2023-04-20T05:33:04;100418.81;;;24.08;37.13
72294;BME280;60632;49.236;8.398;2023-04-20T05:36:07;100418.81;;;24.08;37.10
72294;BME280;60632;49.236;8.398;2023-04-20T05:39:07;100410.50;;;24.08;37.15
72294;BME280;60632;49.236;8.398;2023-04-20T05:42:08;100413.28;;;24.08;37.13
72294;BME280;60632;49.236;8.398;2023-04-20T05:45:08;100406.59;;;24.09;37.09
72294;BME280;60632;49.236;8.398;2023-04-20T05:48:09;100413.28;;;24.08;37.17
72294;BME280;60632;49.236;8.398;2023-04-20T05:51:09;100418.81;;;24.08;37.08
72294;BME280;60632;49.236;8.398;2023-04-20T05:54:10;100416.03;;;24.08;37.18
72294;BME280;60632;49.236;8.398;2023-04-20T05:57:10;100418.00;;;24.07;37.17
72294;BME280;60632;49.236;8.398;2023-04-20T06:00:11;100424.34;;;24.08;37.03
72294;BME280;60632;49.236;8.398;2023-04-20T06:03:12;100423.53;;;24.07;37.06
72294;BME280;60632;49.236;8.398;2023-04-20T06:06:12;100426.59;;;24.06;36.92
72294;BME280;60632;49.236;8.398;2023-04-20T06:09:12;100423.38;;;24.04;37.06
72294;BME280;60632;49.236;8.398;2023-04-20T06:12:13;100419.75;;;23.94;36.93
72294;BME280;60632;49.236;8.398;2023-04-20T06:15:13;100424.59;;;23.80;36.87
72294;BME280;60632;49.236;8.398;2023-04-20T06:18:14;100428.78;;;23.69;36.99
72294;BME280;60632;49.236;8.398;2023-04-20T06:21:14;100428.41;;;23.62;37.05
72294;BME280;60632;49.236;8.398;2023-04-20T06:24:16;100423.53;;;23.59;37.08
72294;BME280;60632;49.236;8.398;2023-04-20T06:27:16;100421.88;;;23.58;37.13
72294;BME280;60632;49.236;8.398;2023-04-20T06:30:18;100421.41;;;23.56;36.93
72294;BME280;60632;49.236;8.398;2023-04-20T06:33:18;100422.53;;;23.55;37.01
72294;BME280;60632;49.236;8.398;2023-04-20T06:36:19;100422.53;;;23.55;37.07
72294;BME280;60632;49.236;8.398;2023-04-20T06:39:19;100412.28;;;23.55;36.91
72294;BME280;60632;49.236;8.398;2023-04-20T06:42:20;100419.44;;;23.56;37.13
72294;BME280;60632;49.236;8.398;2023-04-20T06:45:20;100417.00;;;23.55;36.99
72294;BME280;60632;49.236;8.398;2023-04-20T06:48:20;100411.47;;;23.55;37.07
72294;BME280;60632;49.236;8.398;2023-04-20T06:51:21;100407.56;;;23.56;36.95
72294;BME280;60632;49.236;8.398;2023-04-20T06:54:21;100411.47;;;23.55;36.95
72294;BME280;60632;49.236;8.398;2023-04-20T06:57:22;100405.59;;;23.56;36.92
72294;BME280;60632;49.236;8.398;2023-04-20T07:00:22;100409.19;;;23.57;36.90
72294;BME280;60632;49.236;8.398;2023-04-20T07:03:23;100400.88;;;23.57;37.04
72294;BME280;60632;49.236;8.398;2023-04-20T07:06:23;100394.22;;;23.58;36.94
72294;BME280;60632;49.236;8.398;2023-04-20T07:09:24;100387.56;;;23.59;36.84
72294;BME280;60632;49.236;8.398;2023-04-20T07:12:24;100393.09;;;23.59;36.91
72294;BME280;60632;49.236;8.398;2023-04-20T07:15:25;100397.47;;;23.60;36.82
72294;BME280;60632;49.236;8.398;2023-04-20T07:18:25;100391.94;;;23.60;36.90
72294;BME280;60632;49.236;8.398;2023-04-20T07:21:26;100399.09;;;23.61;36.99
72294;BME280;60632;49.236;8.398;2023-04-20T07:24:26;100388.03;;;23.61;36.90
72294;BME280;60632;49.236;8.398;2023-04-20T07:27:28;100384.16;;;23.62;37.04
72294;BME280;60632;49.236;8.398;2023-04-20T07:30:29;100392.47;;;23.62;36.95
72294;BME280;60632;49.236;8.398;2023-04-20T07:33:30;100387.72;;;23.62;36.90
72294;BME280;60632;49.236;8.398;2023-04-20T07:36:31;100384.63;;;23.64;36.92
72294;BME280;60632;49.236;8.398;2023-04-20T07:39:31;100381.88;;;23.64;36.87
72294;BME280;60632;49.236;8.398;2023-04-20T07:42:32;100377.19;;;23.64;37.01
72294;BME280;60632;49.236;8.398;2023-04-20T07:45:33;100379.59;;;23.66;36.85
72294;BME280;60632;49.236;8.398;2023-04-20T07:48:34;100376.03;;;23.65;37.00
72294;BME280;60632;49.236;8.398;2023-04-20T07:51:34;100380.41;;;23.66;36.80
72294;BME280;60632;49.236;8.398;2023-04-20T07:54:35;100371.31;;;23.66;36.82
72294;BME280;60632;49.236;8.398;2023-04-20T07:57:35;100369.34;;;23.66;36.90
72294;BME280;60632;49.236;8.398;2023-04-20T08:00:36;100370.16;;;23.67;36.88
72294;BME280;60632;49.236;8.398;2023-04-20T08:03:36;100367.94;;;23.69;36.76
72294;BME280;60632;49.236;8.398;2023-04-20T08:06:36;100369.53;;;23.70;36.79
72294;BME280;60632;49.236;8.398;2023-04-20T08:09:37;100370.34;;;23.70;36.84
72294;BME280;60632;49.236;8.398;2023-04-20T08:12:37;100364.00;;;23.70;36.79
72294;BME280;60632;49.236;8.398;2023-04-20T08:15:38;100358.66;;;23.73;36.79
72294;BME280;60632;49.236;8.398;2023-04-20T08:18:39;100363.38;;;23.73;36.78
72294;BME280;60632;49.236;8.398;2023-04-20T08:21:39;100349.22;;;23.74;36.84
72294;BME280;60632;49.236;8.398;2023-04-20T08:24:40;100355.56;;;23.75;36.83
72294;BME280;60632;49.236;8.398;2023-04-20T08:27:40;100355.56;;;23.75;36.81
72294;BME280;60632;49.236;8.398;2023-04-20T08:30:40;100354.44;;;23.76;36.89
72294;BME280;60632;49.236;8.398;2023-04-20T08:33:41;100340.59;;;23.76;36.75
72294;BME280;60632;49.236;8.398;2023-04-20T08:36:41;100343.06;;;23.78;36.83
72294;BME280;60632;49.236;8.398;2023-04-20T08:39:43;100326.44;;;23.78;36.78
72294;BME280;60632;49.236;8.398;2023-04-20T08:42:43;100332.78;;;23.78;36.83
72294;BME280;60632;49.236;8.398;2023-04-20T08:45:43;100336.03;;;23.80;36.71
72294;BME280;60632;49.236;8.398;2023-04-20T08:48:48;100326.13;;;23.79;36.73
72294;BME280;60632;49.236;8.398;2023-04-20T08:51:49;100327.72;;;23.80;36.92
72294;BME280;60632;49.236;8.398;2023-04-20T08:54:50;100324.97;;;23.80;36.67
72294;BME280;60632;49.236;8.398;2023-04-20T08:57:50;100323.50;;;23.83;36.80
72294;BME280;60632;49.236;8.398;2023-04-20T09:00:51;100319.94;;;23.82;36.78
72294;BME280;60632;49.236;8.398;2023-04-20T09:03:51;100323.50;;;23.83;36.79
72294;BME280;60632;49.236;8.398;2023-04-20T09:06:52;100320.44;;;23.84;36.62
72294;BME280;60632;49.236;8.398;2023-04-20T09:09:54;100317.16;;;23.82;36.76
72294;BME280;60632;49.236;8.398;2023-04-20T09:12:55;100313.25;;;23.83;36.77
72294;BME280;60632;49.236;8.398;2023-04-20T09:15:55;100326.78;;;23.85;36.66
72294;BME280;60632;49.236;8.398;2023-04-20T09:18:56;100314.91;;;23.84;36.68
72294;BME280;60632;49.236;8.398;2023-04-20T09:21:57;100310.97;;;23.85;36.74
72294;BME280;60632;49.236;8.398;2023-04-20T09:24:58;100309.03;;;23.86;36.76
72294;BME280;60632;49.236;8.398;2023-04-20T09:27:59;100303.50;;;23.86;36.66
72294;BME280;60632;49.236;8.398;2023-04-20T09:31:00;100304.28;;;23.86;36.78
72294;BME280;60632;49.236;8.398;2023-04-20T09:34:01;100302.34;;;23.87;36.81
72294;BME280;60632;49.236;8.398;2023-04-20T09:37:02;100303.19;;;23.87;36.71
72294;BME280;60632;49.236;8.398;2023-04-20T09:40:02;100288.19;;;23.88;36.66
72294;BME280;60632;49.236;8.398;2023-04-20T09:43:06;100283.81;;;23.87;36.69
72294;BME280;60632;49.236;8.398;2023-04-20T09:46:07;100282.66;;;23.88;36.76
72294;BME280;60632;49.236;8.398;2023-04-20T09:49:08;100283.47;;;23.89;36.76
72294;BME280;60632;49.236;8.398;2023-04-20T09:52:09;100284.28;;;23.89;36.76
72294;BME280;60632;49.236;8.398;2023-04-20T09:55:10;100279.56;;;23.90;36.75
72294;BME280;60632;49.236;8.398;2023-04-20T09:58:11;100280.06;;;23.92;36.58
72294;BME280;60632;49.236;8.398;2023-04-20T10:01:12;100278.44;;;23.91;36.65
72294;BME280;60632;49.236;8.398;2023-04-20T10:04:12;100267.03;;;23.92;36.73
72294;BME280;60632;49.236;8.398;2023-04-20T10:07:21;100269.47;;;23.94;36.52
72294;BME280;60632;49.236;8.398;2023-04-20T10:10:22;100263.94;;;23.94;36.70
72294;BME280;60632;49.236;8.398;2023-04-20T10:13:31;100259.22;;;23.94;36.85
72294;BME280;60632;49.236;8.398;2023-04-20T10:16:31;100256.91;;;23.96;36.66
72294;BME280;60632;49.236;8.398;2023-04-20T10:19:49;100248.63;;;23.96;36.65
72294;BME280;60632;49.236;8.398;2023-04-20T10:22:50;100239.19;;;23.97;36.73
72294;BME280;60632;49.236;8.398;2023-04-20T10:25:55;100238.03;;;23.98;36.64
72294;BME280;60632;49.236;8.398;2023-04-20T10:28:56;100238.84;;;23.99;36.74
72294;BME280;60632;49.236;8.398;2023-04-20T10:31:56;100234.97;;;24.00;36.75
72294;BME280;60632;49.236;8.398;2023-04-20T10:35:03;100235.78;;;24.01;36.70
72294;BME280;60632;49.236;8.398;2023-04-20T10:38:03;100239.00;;;24.03;36.73
72294;BME280;60632;49.236;8.398;2023-04-20T10:41:07;100235.13;;;24.04;36.71
72294;BME280;60632;49.236;8.398;2023-04-20T10:44:08;100226.81;;;24.04;36.92
72294;BME280;60632;49.236;8.398;2023-04-20T10:47:08;100227.28;;;24.06;36.86
72294;BME280;60632;49.236;8.398;2023-04-20T10:50:09;100228.94;;;24.07;36.87
72294;BME280;60632;49.236;8.398;2023-04-20T10:53:20;100227.78;;;24.08;36.96
72294;BME280;60632;49.236;8.398;2023-04-20T10:56:21;100226.63;;;24.09;36.63
72294;BME280;60632;49.236;8.398;2023-04-20T10:59:21;100222.72;;;24.10;36.79
72294;BME280;60632;49.236;8.398;2023-04-20T11:02:22;100218.81;;;24.11;36.98
72294;BME280;60632;49.236;8.398;2023-04-20T11:05:24;100219.63;;;24.11;36.70
72294;BME280;60632;49.236;8.398;2023-04-20T11:08:34;100207.09;;;24.14;36.92
72294;BME280;60632;49.236;8.398;2023-04-20T11:11:34;100211.47;;;24.15;36.86
72294;BME280;60632;49.236;8.398;2023-04-20T11:14:37;100204.78;;;24.16;36.82
72294;BME280;60632;49.236;8.398;2023-04-20T11:17:37;100198.94;;;24.17;36.96
72294;BME280;60632;49.236;8.398;2023-04-20T11:20:48;100198.59;;;24.19;37.11
72294;BME280;60632;49.236;8.398;2023-04-20T11:23:49;100191.94;;;24.20;36.88
72294;BME280;60632;49.236;8.398;2023-04-20T11:26:49;100196.31;;;24.21;37.04
72294;BME280;60632;49.236;8.398;2023-04-20T11:29:55;100195.16;;;24.22;36.88
72294;BME280;60632;49.236;8.398;2023-04-20T11:32:58;100198.44;;;24.24;36.97
72294;BME280;60632;49.236;8.398;2023-04-20T11:35:59;100208.34;;;24.25;36.97
72294;BME280;60632;49.236;8.398;2023-04-20T11:39:07;100232.97;;;24.27;37.20
72294;BME280;60632;49.236;8.398;2023-04-20T11:42:12;100240.13;;;24.28;36.91
72294;BME280;60632;49.236;8.398;2023-04-20T11:45:13;100221.53;;;24.28;37.07
72294;BME280;60632;49.236;8.398;2023-04-20T11:48:13;100215.69;;;24.30;37.12
72294;BME280;60632;49.236;8.398;2023-04-20T11:51:14;100210.97;;;24.30;37.03
72294;BME280;60632;49.236;8.398;2023-04-20T11:54:14;100201.50;;;24.31;37.04
72294;BME280;60632;49.236;8.398;2023-04-20T11:57:15;100197.59;;;24.32;37.10
72294;BME280;60632;49.236;8.398;2023-04-20T12:00:16;100196.44;;;24.33;37.19
72294;BME280;60632;49.236;8.398;2023-04-20T12:03:17;100199.69;;;24.35;37.01
72294;BME280;60632;49.236;8.398;2023-04-20T12:06:17;100202.47;;;24.35;37.14
72294;BME280;60632;49.236;8.398;2023-04-20T12:09:17;100198.56;;;24.36;37.25
72294;BME280;60632;49.236;8.398;2023-04-20T12:12:18;100185.19;;;24.38;37.14
72294;BME280;60632;49.236;8.398;2023-04-20T12:15:18;100203.44;;;24.39;37.21
72294;BME280;60632;49.236;8.398;2023-04-20T12:18:18;100196.75;;;24.40;37.26
72294;BME280;60632;49.236;8.398;2023-04-20T12:21:19;100196.75;;;24.40;37.20
72294;BME280;60632;49.236;8.398;2023-04-20T12:24:20;100198.41;;;24.41;37.25
72294;BME280;60632;49.236;8.398;2023-04-20T12:27:20;100202.81;;;24.42;37.25
72294;BME280;60632;49.236;8.398;2023-04-20T12:30:20;100188.63;;;24.44;37.34
72294;BME280;60632;49.236;8.398;2023-04-20T12:33:21;100183.88;;;24.44;37.42
72294;BME280;60632;49.236;8.398;2023-04-20T12:36:21;100185.53;;;24.46;37.35
72294;BME280;60632;49.236;8.398;2023-04-20T12:39:21;100188.78;;;24.48;37.37
72294;BME280;60632;49.236;8.398;2023-04-20T12:42:22;100192.34;;;24.48;37.49
72294;BME280;60632;49.236;8.398;2023-04-20T12:45:22;100194.81;;;24.50;37.57
72294;BME280;60632;49.236;8.398;2023-04-20T12:48:23;100181.75;;;24.50;37.51
72294;BME280;60632;49.236;8.398;2023-04-20T12:51:23;100181.44;;;24.52;37.65
72294;BME280;60632;49.236;8.398;2023-04-20T12:54:23;100191.38;;;24.53;37.53
72294;BME280;60632;49.236;8.398;2023-04-20T12:57:24;100185.81;;;24.53;37.73
72294;BME280;60632;49.236;8.398;2023-04-20T13:00:24;100190.72;;;24.56;37.79
72294;BME280;60632;49.236;8.398;2023-04-20T13:03:25;100191.50;;;24.56;37.68
72294;BME280;60632;49.236;8.398;2023-04-20T13:06:25;100196.72;;;24.58;37.76
72294;BME280;60632;49.236;8.398;2023-04-20T13:09:27;100202.25;;;24.58;37.82
72294;BME280;60632;49.236;8.398;2023-04-20T13:12:27;100196.41;;;24.59;37.84
72294;BME280;60632;49.236;8.398;2023-04-20T13:15:27;100194.94;;;24.62;37.97
72294;BME280;60632;49.236;8.398;2023-04-20T13:18:28;100200.47;;;24.62;37.87
72294;BME280;60632;49.236;8.398;2023-04-20T13:21:28;100196.53;;;24.63;37.86
72294;BME280;60632;49.236;8.398;2023-04-20T13:24:29;100210.88;;;24.65;37.96
72294;BME280;60632;49.236;8.398;2023-04-20T13:27:29;100209.72;;;24.66;38.07
72294;BME280;60632;49.236;8.398;2023-04-20T13:30:30;100214.13;;;24.67;38.21
72294;BME280;60632;49.236;8.398;2023-04-20T13:33:31;100226.84;;;24.68;38.18
72294;BME280;60632;49.236;8.398;2023-04-20T13:36:32;100217.38;;;24.69;38.16
72294;BME280;60632;49.236;8.398;2023-04-20T13:39:32;100224.53;;;24.70;38.36
72294;BME280;60632;49.236;8.398;2023-04-20T13:42:33;100220.66;;;24.71;38.45
72294;BME280;60632;49.236;8.398;2023-04-20T13:45:34;100216.72;;;24.72;38.34
72294;BME280;60632;49.236;8.398;2023-04-20T13:48:34;100218.34;;;24.73;38.24
72294;BME280;60632;49.236;8.398;2023-04-20T13:51:35;100223.88;;;24.73;38.51
72294;BME280;60632;49.236;8.398;2023-04-20T13:54:35;100218.34;;;24.73;38.44
72294;BME280;60632;49.236;8.398;2023-04-20T13:57:36;100220.78;;;24.75;38.45
72294;BME280;60632;49.236;8.398;2023-04-20T14:00:36;100217.22;;;24.74;38.57
72294;BME280;60632;49.236;8.398;2023-04-20T14:03:37;100212.47;;;24.75;38.75
72294;BME280;60632;49.236;8.398;2023-04-20T14:06:37;100219.97;;;24.74;38.62
72294;BME280;60632;49.236;8.398;2023-04-20T14:09:37;100212.13;;;24.76;38.64
72294;BME280;60632;49.236;8.398;2023-04-20T14:12:38;100209.72;;;24.75;38.78
72294;BME280;60632;49.236;8.398;2023-04-20T14:15:38;100210.50;;;24.75;38.83
72294;BME280;60632;49.236;8.398;2023-04-20T14:18:39;100206.59;;;24.76;38.74
72294;BME280;60632;49.236;8.398;2023-04-20T14:21:40;100192.28;;;24.74;38.83
72294;BME280;60632;49.236;8.398;2023-04-20T14:24:43;100195.84;;;24.75;38.77
72294;BME280;60632;49.236;8.398;2023-04-20T14:27:47;100190.31;;;24.75;38.82
72294;BME280;60632;49.236;8.398;2023-04-20T14:30:48;100191.91;;;24.76;38.87
72294;BME280;60632;49.236;8.398;2023-04-20T14:33:50;100189.16;;;24.76;38.87
72294;BME280;60632;49.236;8.398;2023-04-20T14:36:50;100184.41;;;24.76;38.88
72294;BME280;60632;49.236;8.398;2023-04-20T14:39:51;100181.66;;;24.76;39.12
72294;BME280;60632;49.236;8.398;2023-04-20T14:42:51;100183.59;;;24.76;39.08
72294;BME280;60632;49.236;8.398;2023-04-20T14:45:51;100186.03;;;24.77;38.92
72294;BME280;60632;49.236;8.398;2023-04-20T14:48:52;100177.72;;;24.77;39.21
72294;BME280;60632;49.236;8.398;2023-04-20T14:51:52;100176.59;;;24.78;39.13
72294;BME280;60632;49.236;8.398;2023-04-20T14:54:52;100179.38;;;24.78;39.21
72294;BME280;60632;49.236;8.398;2023-04-20T14:57:53;100178.22;;;24.79;39.22
72294;BME280;60632;49.236;8.398;2023-04-20T15:00:54;100175.44;;;24.79;39.39
72294;BME280;60632;49.236;8.398;2023-04-20T15:03:54;100168.72;;;24.80;39.39
72294;BME280;60632;49.236;8.398;2023-04-20T15:06:55;100162.38;;;24.80;39.39
72294;BME280;60632;49.236;8.398;2023-04-20T15:09:55;100174.28;;;24.80;39.46
72294;BME280;60632;49.236;8.398;2023-04-20T15:12:55;100170.38;;;24.81;39.60
72294;BME280;60632;49.236;8.398;2023-04-20T15:15:56;100164.84;;;24.81;39.62
72294;BME280;60632;49.236;8.398;2023-04-20T15:18:56;100172.00;;;24.82;39.67
72294;BME280;60632;49.236;8.398;2023-04-20T15:21:56;100163.69;;;24.82;39.67
72294;BME280;60632;49.236;8.398;2023-04-20T15:24:57;100170.84;;;24.83;39.68
72294;BME280;60632;49.236;8.398;2023-04-20T15:27:57;100173.63;;;24.83;39.77
72294;BME280;60632;49.236;8.398;2023-04-20T15:30:57;100175.25;;;24.84;39.82
72294;BME280;60632;49.236;8.398;2023-04-20T15:33:58;100181.63;;;24.85;39.75
72294;BME280;60632;49.236;8.398;2023-04-20T15:36:58;100187.97;;;24.85;39.92
72294;BME280;60632;49.236;8.398;2023-04-20T15:40:01;100180.13;;;24.87;39.85
72294;BME280;60632;49.236;8.398;2023-04-20T15:43:03;100175.72;;;24.86;39.92
72294;BME280;60632;49.236;8.398;2023-04-20T15:46:04;100179.28;;;24.87;39.95